NAG weather

Dr. Babasaheb Ambedkar International Airport
Naqpur, Maharashtra, India

Public forecast

Using degrees Celsius for public forecast. Weather courtesy of forecast.io.

Current aviation weather report (METAR) for Dr. Babasaheb Ambedkar International Airport

Retrieved 2020/07/14 03:30 UTC (30 minutes ago):

VANP 140330Z 28002KT 3000 BR SCT018 BKN090 27/25 Q1005 BECMG 4000 HZ

Aviation forecast (TAF) for Dr. Babasaheb Ambedkar International Airport

Retrieved 2020-07-14 00:48 UTC (3 hours ago):

TAF TAF VANP 132300Z 1400/1506 27005KT 3000 HZ -RA SCT020 FEWTCU025 OVC080 TEMPO 1400/1404 1410/1414 1500 -TSRA FEW012 SCT020 FEW030CB OVC080